createdAt,value
2017-07-29T00:00:53.043Z,7.07
2017-07-29T00:03:19.884Z,6.10
2017-07-29T00:05:46.444Z,6.43
2017-07-29T00:08:12.900Z,6.95
2017-07-29T00:10:39.358Z,6.80
2017-07-29T00:13:05.913Z,7.57
2017-07-29T00:15:32.400Z,7.40
2017-07-29T00:17:58.929Z,6.90
2017-07-29T00:20:25.408Z,7.40
2017-07-29T00:22:51.854Z,6.50
2017-07-29T00:25:18.328Z,6.43
2017-07-29T00:27:44.821Z,6.60
2017-07-29T00:30:11.326Z,8.02
2017-07-29T00:32:37.817Z,8.30
2017-07-29T00:35:04.250Z,6.30
2017-07-29T00:37:30.729Z,6.95
2017-07-29T00:39:57.192Z,6.25
2017-07-29T00:42:24.281Z,7.03
2017-07-29T00:44:50.765Z,8.02
2017-07-29T00:47:17.586Z,6.47
2017-07-29T00:49:44.035Z,6.22
2017-07-29T00:52:10.494Z,6.72
2017-07-29T00:54:36.934Z,6.70
2017-07-29T00:57:03.454Z,7.55
2017-07-29T00:59:29.914Z,7.43
2017-07-29T01:01:56.398Z,6.60
2017-07-29T01:04:22.877Z,7.40
2017-07-29T01:06:49.347Z,6.78
2017-07-29T01:09:15.848Z,6.15
2017-07-29T01:11:42.301Z,6.87
2017-07-29T01:14:08.771Z,6.75
2017-07-29T01:16:35.254Z,6.70
2017-07-29T01:19:01.725Z,6.25
2017-07-29T01:21:28.220Z,6.68
2017-07-29T01:23:54.692Z,6.30
2017-07-29T01:26:21.143Z,6.47
2017-07-29T01:28:47.643Z,6.78
2017-07-29T01:31:14.249Z,6.50
2017-07-29T01:33:41.223Z,6.78
2017-07-29T01:36:07.725Z,6.30
2017-07-29T01:38:34.332Z,8.30
2017-07-29T01:41:00.853Z,6.45
2017-07-29T01:43:27.359Z,7.80
2017-07-29T01:45:53.907Z,8.45
2017-07-29T01:48:20.566Z,6.75
2017-07-29T01:50:47.228Z,8.23
2017-07-29T01:53:13.785Z,7.65
2017-07-29T01:55:40.577Z,6.57
2017-07-29T01:58:07.218Z,6.80
2017-07-29T02:00:33.823Z,6.57
2017-07-29T02:03:00.430Z,6.07
2017-07-29T02:05:26.990Z,6.50
2017-07-29T02:07:54.057Z,6.80
2017-07-29T02:10:20.720Z,6.53
2017-07-29T02:12:47.177Z,6.97
2017-07-29T02:15:13.936Z,6.45
2017-07-29T02:17:40.431Z,6.10
2017-07-29T02:20:06.904Z,7.43
2017-07-29T02:22:33.379Z,7.75
2017-07-29T02:24:59.847Z,6.60
2017-07-29T02:27:27.034Z,6.00
2017-07-29T02:29:53.509Z,5.90
2017-07-29T02:32:20.052Z,6.12
2017-07-29T02:34:46.525Z,8.10
2017-07-29T02:37:13.017Z,6.35
2017-07-29T02:39:39.479Z,6.00
2017-07-29T02:42:05.983Z,6.00
2017-07-29T02:44:32.763Z,7.35
2017-07-29T02:46:59.238Z,6.40
2017-07-29T02:49:25.755Z,6.72
2017-07-29T02:51:52.206Z,6.25
2017-07-29T02:54:19.486Z,6.50
2017-07-29T02:56:45.942Z,5.72
2017-07-29T02:59:12.419Z,5.75
2017-07-29T03:01:38.850Z,6.85
2017-07-29T03:04:06.027Z,6.47
2017-07-29T03:06:32.467Z,5.70
2017-07-29T03:08:59.794Z,5.43
2017-07-29T03:11:26.231Z,5.30
2017-07-29T03:13:52.897Z,5.12
2017-07-29T03:16:19.349Z,5.10
2017-07-29T03:18:45.783Z,6.60
2017-07-29T03:21:13.273Z,5.47
2017-07-29T03:23:40.221Z,5.82
2017-07-29T03:26:07.407Z,4.00
2017-07-29T03:28:34.180Z,6.87
2017-07-29T03:31:00.631Z,5.50
2017-07-29T03:33:27.089Z,4.47
2017-07-29T03:35:53.546Z,5.53
2017-07-29T03:38:19.990Z,5.10
2017-07-29T03:40:46.550Z,5.87
2017-07-29T03:43:13.002Z,5.25
2017-07-29T03:45:40.201Z,4.97
2017-07-29T03:48:06.644Z,5.77
2017-07-29T03:50:33.103Z,4.83
2017-07-29T03:52:59.648Z,4.60
2017-07-29T03:55:26.208Z,6.30
2017-07-29T03:57:52.720Z,5.10
2017-07-29T04:00:19.202Z,5.53
2017-07-29T04:02:46.411Z,4.80
2017-07-29T04:05:12.849Z,4.97
2017-07-29T04:07:39.939Z,4.78
2017-07-29T04:10:06.382Z,4.95
2017-07-29T04:12:32.887Z,4.70
2017-07-29T04:14:59.389Z,4.95
2017-07-29T04:17:25.833Z,4.43
2017-07-29T04:19:53.005Z,4.32
2017-07-29T04:22:20.099Z,5.47
2017-07-29T04:24:46.542Z,5.50
2017-07-29T04:27:13.041Z,4.30
2017-07-29T04:29:39.500Z,4.72
2017-07-29T04:32:05.971Z,5.18
2017-07-29T04:34:32.420Z,6.30
2017-07-29T04:36:59.468Z,4.75
2017-07-29T04:39:26.202Z,7.93
2017-07-29T04:41:52.639Z,5.27
2017-07-29T04:44:19.802Z,5.12
2017-07-29T04:46:46.389Z,4.20
2017-07-29T04:49:12.858Z,5.37
2017-07-29T04:51:39.303Z,4.30
2017-07-29T04:54:05.773Z,3.70
2017-07-29T04:56:32.524Z,3.97
2017-07-29T04:58:58.982Z,4.10
2017-07-29T05:01:25.428Z,4.00
2017-07-29T05:03:53.045Z,3.47
2017-07-29T05:06:19.489Z,4.53
2017-07-29T05:08:45.948Z,4.28
2017-07-29T05:11:12.485Z,2.92
2017-07-29T05:13:38.969Z,3.70
2017-07-29T05:16:05.434Z,3.65
2017-07-29T05:18:31.923Z,3.45
2017-07-29T05:20:58.608Z,3.47
2017-07-29T05:23:25.780Z,2.87
2017-07-29T05:25:52.992Z,3.15
2017-07-29T05:28:19.414Z,3.22
2017-07-29T05:30:45.878Z,4.22
2017-07-29T05:33:12.305Z,3.45
2017-07-29T05:35:38.758Z,2.80
2017-07-29T05:38:05.161Z,3.47
2017-07-29T05:40:32.002Z,3.35
2017-07-29T05:42:58.465Z,2.80
2017-07-29T05:45:25.079Z,3.37
2017-07-29T05:47:51.504Z,2.95
2017-07-29T05:50:17.958Z,2.72
2017-07-29T05:52:44.487Z,3.08
2017-07-29T05:55:11.763Z,3.77
2017-07-29T05:57:38.257Z,3.30
2017-07-29T06:00:04.933Z,2.30
2017-07-29T06:02:31.397Z,3.20
2017-07-29T06:04:57.878Z,2.70
2017-07-29T06:07:25.232Z,2.70
2017-07-29T06:09:51.790Z,2.30
2017-07-29T06:12:18.407Z,3.10
2017-07-29T06:14:44.944Z,2.70
2017-07-29T06:17:12.394Z,2.78
2017-07-29T06:19:39.124Z,2.85
2017-07-29T06:22:05.765Z,2.47
2017-07-29T06:24:32.386Z,3.00
2017-07-29T06:26:58.944Z,2.90
2017-07-29T06:29:26.283Z,3.00
2017-07-29T06:31:52.794Z,7.37
2017-07-29T06:34:19.354Z,3.03
2017-07-29T06:36:46.884Z,3.10
2017-07-29T06:39:13.531Z,3.20
2017-07-29T06:41:40.992Z,3.90
2017-07-29T06:44:07.433Z,2.83
2017-07-29T06:46:34.057Z,3.60
2017-07-29T06:49:00.530Z,3.20
2017-07-29T06:51:27.113Z,3.22
2017-07-29T06:53:54.215Z,2.50
2017-07-29T06:56:21.197Z,3.28
2017-07-29T06:58:47.822Z,4.97
2017-07-29T07:01:14.619Z,4.15
2017-07-29T07:03:41.863Z,3.80
2017-07-29T07:06:08.871Z,4.00
2017-07-29T07:08:36.191Z,4.47
2017-07-29T07:11:04.106Z,5.50
2017-07-29T07:13:30.580Z,5.00
2017-07-29T07:15:57.185Z,6.33
2017-07-29T07:18:23.792Z,3.22
2017-07-29T07:20:50.476Z,3.20
2017-07-29T07:23:17.064Z,3.03
2017-07-29T07:25:43.500Z,3.95
2017-07-29T07:28:09.972Z,4.30
2017-07-29T07:30:37.700Z,3.00
2017-07-29T07:33:04.524Z,4.78
2017-07-29T07:35:32.353Z,4.10
2017-07-29T07:37:58.870Z,3.90
2017-07-29T07:40:25.562Z,4.15
2017-07-29T07:42:52.099Z,3.05
2017-07-29T07:45:18.742Z,3.10
2017-07-29T07:47:45.443Z,3.30
2017-07-29T07:50:12.183Z,3.40
2017-07-29T07:52:38.699Z,3.40
2017-07-29T07:55:05.787Z,3.60
2017-07-29T07:57:33.011Z,4.37
2017-07-29T08:00:00.390Z,3.00
2017-07-29T08:02:26.873Z,4.43
2017-07-29T08:04:54.345Z,3.28
2017-07-29T08:07:21.672Z,2.80
2017-07-29T08:09:49.404Z,3.12
2017-07-29T08:12:16.352Z,4.18
2017-07-29T08:14:44.028Z,3.37
2017-07-29T08:17:10.687Z,3.53
2017-07-29T08:19:37.178Z,2.70
2017-07-29T08:22:04.441Z,6.30
2017-07-29T08:24:31.166Z,4.00
2017-07-29T08:26:57.790Z,3.15
2017-07-29T08:29:24.459Z,6.18
2017-07-29T08:31:51.762Z,4.75
2017-07-29T08:34:19.237Z,3.55
2017-07-29T08:36:46.675Z,3.60
2017-07-29T08:39:13.589Z,4.37
2017-07-29T08:41:40.088Z,4.20
2017-07-29T08:44:06.835Z,4.00
2017-07-29T08:46:33.341Z,4.23
2017-07-29T08:49:00.161Z,5.20
2017-07-29T08:51:27.019Z,5.03
2017-07-29T08:53:53.969Z,4.57
2017-07-29T08:56:21.181Z,3.95
2017-07-29T08:58:48.978Z,4.70
2017-07-29T09:01:15.720Z,6.00
2017-07-29T09:03:42.300Z,5.43
2017-07-29T09:06:09.312Z,5.25
2017-07-29T09:08:36.442Z,5.10
2017-07-29T09:11:04.280Z,5.18
2017-07-29T09:13:31.082Z,4.85
2017-07-29T09:15:58.331Z,4.72
2017-07-29T09:18:25.680Z,4.72
2017-07-29T09:20:52.389Z,5.75
2017-07-29T09:23:19.005Z,4.85
2017-07-29T09:25:45.765Z,3.90
2017-07-29T09:28:13.020Z,6.15
2017-07-29T09:30:40.280Z,6.35
2017-07-29T09:33:06.910Z,5.07
2017-07-29T09:35:34.476Z,4.55
2017-07-29T09:38:02.138Z,4.00
2017-07-29T09:40:30.349Z,5.68
2017-07-29T09:42:57.473Z,3.85
2017-07-29T09:45:25.707Z,5.85
2017-07-29T09:47:52.493Z,4.25
2017-07-29T09:50:19.134Z,5.90
2017-07-29T09:52:45.609Z,4.12
2017-07-29T09:55:12.709Z,5.77
2017-07-29T09:57:39.935Z,5.37
2017-07-29T10:00:06.440Z,5.37
2017-07-29T10:02:34.803Z,4.80
2017-07-29T10:05:01.279Z,4.10
2017-07-29T10:07:28.024Z,7.10
2017-07-29T10:09:54.676Z,5.70
2017-07-29T10:12:21.216Z,5.10
2017-07-29T10:14:48.030Z,6.55
2017-07-29T10:17:15.294Z,4.60
2017-07-29T10:19:43.266Z,5.30
2017-07-29T10:22:11.436Z,5.15
2017-07-29T10:24:38.789Z,4.30
2017-07-29T10:27:05.387Z,7.07
2017-07-29T10:29:32.046Z,6.47
2017-07-29T10:31:58.694Z,5.53
2017-07-29T10:34:26.346Z,6.72
2017-07-29T10:36:54.101Z,4.87
2017-07-29T10:39:20.567Z,5.55
2017-07-29T10:41:47.863Z,6.20
2017-07-29T10:44:15.073Z,4.50
2017-07-29T10:46:41.529Z,6.20
2017-07-29T10:49:09.249Z,5.07
2017-07-29T10:51:35.895Z,5.30
2017-07-29T10:54:02.635Z,5.30
2017-07-29T10:56:30.161Z,6.27
2017-07-29T10:58:56.710Z,5.53
2017-07-29T11:01:23.673Z,5.68
2017-07-29T11:03:50.604Z,4.40
2017-07-29T11:06:17.662Z,4.43
2017-07-29T11:08:44.982Z,5.12
2017-07-29T11:11:12.082Z,4.53
2017-07-29T11:13:38.702Z,4.95
2017-07-29T11:16:06.238Z,5.30
2017-07-29T11:18:33.522Z,4.82
2017-07-29T11:21:00.244Z,5.85
2017-07-29T11:23:26.870Z,4.68
2017-07-29T11:25:53.568Z,4.40
2017-07-29T11:28:20.024Z,5.93
2017-07-29T11:30:46.810Z,6.15
2017-07-29T11:33:13.661Z,4.40
2017-07-29T11:35:40.575Z,4.60
2017-07-29T11:38:08.099Z,4.60
2017-07-29T11:40:34.597Z,5.82
2017-07-29T11:43:02.025Z,6.82
2017-07-29T11:45:29.013Z,6.65
2017-07-29T11:47:57.161Z,4.90
2017-07-29T11:50:23.715Z,5.75
2017-07-29T11:52:50.977Z,6.00
2017-07-29T11:55:17.438Z,5.80
2017-07-29T11:57:43.891Z,5.37
2017-07-29T12:00:11.299Z,4.60
2017-07-29T12:02:38.092Z,4.22
2017-07-29T12:05:04.943Z,4.85
2017-07-29T12:07:31.885Z,4.70
2017-07-29T12:09:59.139Z,5.50
2017-07-29T12:12:26.591Z,4.75
2017-07-29T12:14:53.592Z,4.40
2017-07-29T12:17:20.482Z,4.53
2017-07-29T12:19:47.148Z,5.75
2017-07-29T12:22:13.852Z,4.40
2017-07-29T12:24:40.903Z,5.40
2017-07-29T12:27:07.434Z,4.30
2017-07-29T12:29:34.113Z,5.67
2017-07-29T12:32:00.865Z,5.10
2017-07-29T12:34:27.417Z,5.83
2017-07-29T12:36:53.973Z,4.50
2017-07-29T12:39:20.514Z,4.70
2017-07-29T12:41:47.302Z,4.50
2017-07-29T12:44:13.989Z,4.60
2017-07-29T12:46:41.026Z,5.07
2017-07-29T12:49:07.788Z,4.95
2017-07-29T12:51:34.462Z,5.22
2017-07-29T12:54:01.928Z,4.62
2017-07-29T12:56:28.437Z,4.28
2017-07-29T12:58:55.784Z,5.40
2017-07-29T13:01:22.278Z,5.15
2017-07-29T13:03:49.728Z,5.05
2017-07-29T13:06:16.302Z,5.60
2017-07-29T13:08:43.020Z,5.93
2017-07-29T13:11:10.045Z,4.40
2017-07-29T13:13:37.272Z,4.70
2017-07-29T13:16:04.228Z,7.03
2017-07-29T13:18:31.710Z,4.60
2017-07-29T13:20:58.878Z,5.45
2017-07-29T13:23:25.753Z,4.30
2017-07-29T13:25:52.304Z,4.80
2017-07-29T13:28:18.863Z,5.55
2017-07-29T13:30:45.546Z,5.25
2017-07-29T13:33:12.015Z,4.00
2017-07-29T13:35:38.483Z,4.23
2017-07-29T13:38:06.271Z,4.65
2017-07-29T13:40:32.886Z,5.07
2017-07-29T13:42:59.668Z,3.60
2017-07-29T13:45:27.506Z,4.32
2017-07-29T13:47:54.401Z,3.15
2017-07-29T13:50:20.977Z,3.70
2017-07-29T13:52:48.141Z,3.83
2017-07-29T13:55:14.980Z,3.87
2017-07-29T13:57:42.167Z,3.53
2017-07-29T14:00:09.956Z,4.07
2017-07-29T14:02:36.482Z,3.40
2017-07-29T14:05:03.176Z,5.03
2017-07-29T14:07:30.044Z,3.60
2017-07-29T14:09:56.569Z,3.33
2017-07-29T14:12:23.399Z,3.75
2017-07-29T14:14:49.927Z,4.75
2017-07-29T14:17:16.408Z,3.97
2017-07-29T14:19:43.294Z,3.65
2017-07-29T14:22:10.065Z,3.90
2017-07-29T14:24:37.724Z,3.65
2017-07-29T14:27:04.489Z,3.28
2017-07-29T14:29:31.709Z,4.87
2017-07-29T14:31:58.325Z,4.45
2017-07-29T14:34:25.155Z,4.32
2017-07-29T14:36:52.033Z,3.58
2017-07-29T14:39:18.522Z,4.43
2017-07-29T14:41:46.923Z,3.37
2017-07-29T14:44:13.411Z,4.03
2017-07-29T14:46:40.297Z,2.90
2017-07-29T14:49:07.342Z,3.95
2017-07-29T14:51:33.965Z,3.47
2017-07-29T14:54:00.440Z,3.60
2017-07-29T14:56:27.877Z,3.00
2017-07-29T14:58:54.506Z,3.12
2017-07-29T15:01:21.657Z,3.77
2017-07-29T15:03:48.396Z,3.40
2017-07-29T15:06:15.264Z,3.25
2017-07-29T15:08:41.996Z,4.03
2017-07-29T15:11:08.552Z,3.83
2017-07-29T15:13:35.968Z,3.20
2017-07-29T15:16:02.794Z,3.90
2017-07-29T15:18:29.755Z,3.97
2017-07-29T15:20:57.722Z,3.40
2017-07-29T15:23:24.871Z,4.68
2017-07-29T15:25:51.855Z,3.78
2017-07-29T15:28:18.696Z,2.80
2017-07-29T15:30:45.131Z,3.00
2017-07-29T15:33:11.583Z,3.05
2017-07-29T15:35:38.437Z,2.60
2017-07-29T15:38:04.862Z,2.58
2017-07-29T15:40:31.458Z,3.75
2017-07-29T15:42:57.961Z,3.40
2017-07-29T15:45:25.427Z,3.17
2017-07-29T15:47:52.067Z,3.10
2017-07-29T15:50:19.317Z,2.70
2017-07-29T15:52:46.878Z,3.40
2017-07-29T15:55:13.714Z,3.10
2017-07-29T15:57:41.174Z,3.33
2017-07-29T16:00:08.044Z,2.85
2017-07-29T16:02:35.572Z,2.70
2017-07-29T16:05:02.490Z,2.50
2017-07-29T16:07:29.152Z,3.53
2017-07-29T16:09:55.615Z,2.92
2017-07-29T16:12:22.956Z,3.45
2017-07-29T16:14:49.464Z,3.37
2017-07-29T16:17:16.875Z,3.60
2017-07-29T16:19:43.669Z,3.42
2017-07-29T16:22:10.412Z,2.85
2017-07-29T16:24:36.942Z,3.53
2017-07-29T16:27:04.094Z,3.03
2017-07-29T16:29:30.833Z,2.40
2017-07-29T16:31:57.975Z,3.50
2017-07-29T16:34:24.929Z,2.45
2017-07-29T16:36:51.505Z,3.83
2017-07-29T16:39:18.377Z,3.60
2017-07-29T16:41:46.237Z,4.37
2017-07-29T16:44:12.818Z,2.80
2017-07-29T16:46:39.286Z,2.50
2017-07-29T16:49:05.998Z,2.97
2017-07-29T16:51:33.537Z,2.60
2017-07-29T16:54:00.188Z,2.97
2017-07-29T16:56:26.739Z,3.08
2017-07-29T16:58:53.588Z,2.93
2017-07-29T17:01:20.778Z,3.03
2017-07-29T17:03:47.568Z,5.47
2017-07-29T17:06:14.331Z,4.20
2017-07-29T17:08:40.815Z,4.22
2017-07-29T17:11:08.340Z,3.80
2017-07-29T17:13:35.133Z,2.90
2017-07-29T17:16:01.575Z,3.70
2017-07-29T17:18:28.591Z,4.20
2017-07-29T17:20:55.650Z,4.50
2017-07-29T17:23:23.309Z,3.05
2017-07-29T17:25:49.923Z,3.00
2017-07-29T17:28:16.927Z,3.40
2017-07-29T17:30:43.583Z,3.50
2017-07-29T17:33:10.233Z,4.32
2017-07-29T17:35:36.769Z,3.90
2017-07-29T17:38:03.211Z,3.12
2017-07-29T17:40:29.678Z,3.42
2017-07-29T17:42:57.108Z,4.07
2017-07-29T17:45:23.700Z,3.42
2017-07-29T17:47:51.112Z,4.30
2017-07-29T17:50:25.526Z,2.80
2017-07-29T17:52:53.127Z,3.62
2017-07-29T17:55:20.030Z,3.85
2017-07-29T17:57:46.665Z,3.85
2017-07-29T18:00:13.403Z,3.00
2017-07-29T18:02:40.898Z,3.58
2017-07-29T18:05:07.910Z,3.30
2017-07-29T18:07:36.387Z,3.72
2017-07-29T18:10:03.026Z,3.30
2017-07-29T18:12:29.765Z,3.90
2017-07-29T18:14:56.451Z,7.10
2017-07-29T18:17:23.011Z,4.40
2017-07-29T18:19:49.439Z,6.97
2017-07-29T18:22:16.231Z,3.70
2017-07-29T18:24:42.696Z,7.67
2017-07-29T18:27:09.385Z,5.72
2017-07-29T18:29:36.668Z,3.40
2017-07-29T18:32:03.957Z,4.00
2017-07-29T18:34:31.371Z,4.10
2017-07-29T18:36:57.936Z,3.60
2017-07-29T18:39:24.624Z,5.00
2017-07-29T18:41:51.102Z,3.42
2017-07-29T18:44:18.430Z,5.07
2017-07-29T18:46:46.161Z,3.63
2017-07-29T18:49:13.639Z,4.60
2017-07-29T18:51:40.281Z,3.97
2017-07-29T18:54:06.816Z,4.60
2017-07-29T18:56:33.319Z,3.92
2017-07-29T18:59:00.509Z,4.10
2017-07-29T19:01:27.063Z,4.40
2017-07-29T19:03:53.668Z,8.15
2017-07-29T19:06:20.470Z,20.17
2017-07-29T19:08:47.202Z,13.73
2017-07-29T19:11:14.279Z,8.80
2017-07-29T19:13:41.269Z,7.55
2017-07-29T19:16:07.993Z,7.10
2017-07-29T19:18:34.763Z,6.40
2017-07-29T19:21:01.312Z,5.07
2017-07-29T19:23:28.511Z,5.93
2017-07-29T19:25:55.383Z,5.65
2017-07-29T19:28:22.595Z,5.97
2017-07-29T19:30:49.235Z,5.32
2017-07-29T19:33:16.606Z,6.30
2017-07-29T19:35:43.063Z,5.47
2017-07-29T19:38:09.962Z,7.10
2017-07-29T19:40:36.899Z,7.68
2017-07-29T19:43:03.519Z,12.15
2017-07-29T19:45:30.061Z,15.73
2017-07-29T19:47:56.664Z,7.85
2017-07-29T19:50:23.890Z,4.95
2017-07-29T19:52:52.013Z,4.70
2017-07-29T19:55:18.771Z,5.10
2017-07-29T19:57:45.300Z,4.03
2017-07-29T20:00:12.142Z,4.60
2017-07-29T20:02:39.394Z,6.40
2017-07-29T20:05:06.222Z,5.30
2017-07-29T20:07:33.888Z,5.03
2017-07-29T20:10:00.737Z,4.97
2017-07-29T20:12:28.384Z,6.90
2017-07-29T20:14:56.163Z,7.35
2017-07-29T20:17:22.993Z,5.18
2017-07-29T20:19:49.749Z,5.97
2017-07-29T20:22:16.210Z,5.40
2017-07-29T20:24:43.232Z,6.05
2017-07-29T20:27:09.868Z,5.40
2017-07-29T20:29:36.869Z,5.40
2017-07-29T20:32:04.645Z,8.80
2017-07-29T20:34:31.322Z,8.45
2017-07-29T20:36:57.838Z,6.10
2017-07-29T20:39:24.332Z,7.72
2017-07-29T20:41:51.021Z,7.40
2017-07-29T20:44:17.652Z,7.32
2017-07-29T20:46:44.186Z,11.50
2017-07-29T20:49:10.862Z,8.20
2017-07-29T20:51:37.376Z,6.80
2017-07-29T20:54:04.674Z,6.00
2017-07-29T20:56:31.194Z,6.40
2017-07-29T20:58:57.891Z,7.40
2017-07-29T21:01:25.470Z,6.62
2017-07-29T21:03:52.111Z,6.40
2017-07-29T21:06:19.319Z,7.20
2017-07-29T21:08:46.071Z,6.68
2017-07-29T21:11:13.065Z,6.73
2017-07-29T21:13:39.982Z,6.50
2017-07-29T21:16:06.577Z,7.05
2017-07-29T21:18:33.220Z,9.07
2017-07-29T21:20:59.997Z,8.55
2017-07-29T21:23:26.503Z,11.13
2017-07-29T21:25:52.963Z,14.00
2017-07-29T21:28:19.903Z,14.18
2017-07-29T21:30:46.543Z,8.60
2017-07-29T21:33:13.184Z,7.90
2017-07-29T21:35:41.160Z,10.43
2017-07-29T21:38:07.636Z,8.45
2017-07-29T21:40:34.698Z,8.02
2017-07-29T21:43:01.932Z,7.20
2017-07-29T21:45:29.544Z,6.50
2017-07-29T21:47:56.731Z,6.50
2017-07-29T21:50:23.168Z,6.00
2017-07-29T21:52:49.702Z,6.00
2017-07-29T21:55:17.069Z,5.43
2017-07-29T21:57:43.935Z,6.00
2017-07-29T22:00:10.509Z,6.18
2017-07-29T22:02:37.513Z,6.78
2017-07-29T22:05:04.196Z,6.37
2017-07-29T22:07:31.281Z,5.70
2017-07-29T22:09:57.743Z,6.70
2017-07-29T22:12:25.360Z,7.28
2017-07-29T22:14:52.250Z,7.70
2017-07-29T22:17:18.804Z,5.80
2017-07-29T22:19:45.313Z,5.60
2017-07-29T22:22:11.865Z,6.45
2017-07-29T22:24:38.622Z,5.80
2017-07-29T22:27:05.148Z,5.68
2017-07-29T22:29:32.212Z,6.20
2017-07-29T22:31:59.080Z,5.78
2017-07-29T22:34:25.636Z,5.90
2017-07-29T22:36:52.554Z,5.70
2017-07-29T22:39:20.040Z,5.80
2017-07-29T22:41:46.640Z,6.55
2017-07-29T22:44:13.404Z,6.15
2017-07-29T22:46:40.099Z,6.30
2017-07-29T22:49:06.960Z,5.60
2017-07-29T22:51:34.527Z,6.03
2017-07-29T22:54:01.417Z,5.80
2017-07-29T22:56:28.379Z,5.50
2017-07-29T22:58:55.042Z,5.20
2017-07-29T23:01:21.712Z,5.50
2017-07-29T23:03:48.185Z,5.80
2017-07-29T23:06:14.921Z,5.47
2017-07-29T23:08:41.572Z,5.65
2017-07-29T23:11:08.309Z,5.32
2017-07-29T23:13:35.005Z,6.43
2017-07-29T23:16:01.530Z,5.55
2017-07-29T23:18:28.198Z,5.28
2017-07-29T23:20:55.016Z,5.33
2017-07-29T23:23:22.180Z,5.00
2017-07-29T23:25:48.817Z,5.25
2017-07-29T23:28:15.560Z,5.47
2017-07-29T23:30:42.188Z,5.30
2017-07-29T23:33:09.148Z,5.40
2017-07-29T23:35:37.003Z,6.03
2017-07-29T23:38:03.948Z,5.10
2017-07-29T23:40:31.120Z,5.50
2017-07-29T23:42:58.147Z,5.50
2017-07-29T23:45:25.430Z,6.18
2017-07-29T23:48:07.889Z,5.68
2017-07-29T23:50:36.464Z,5.15
2017-07-29T23:53:03.250Z,6.10
2017-07-29T23:55:29.739Z,5.18
2017-07-29T23:57:56.311Z,5.95
